Time;durP1;ratioP1;P1;durP2;ratioP2;P2;SDS_P1;SDS_P2;PMS_P1;PMS_P2;Temp;Humidity;BMP_temperature;BMP_pressure;BME280_temperature;BME280_humidity;BME280_pressure;Samples;Min_cycle;Max_cycle;Signal;HPM_P1;HPM_P2
2022/03/04 00:00:29;;;;;;;;;;;23.10;99.90;;;;;;5074421;28;19988;-77
2022/03/04 00:02:56;;;;;;;;;;;23.10;99.90;;;;;;5074228;28;19927;-77
2022/03/04 00:05:22;;;;;;;;;;;23.20;99.90;;;;;;5074151;28;19916;-77
2022/03/04 00:07:49;;;;;;;;;;;23.20;99.90;;;;;;5074199;28;19908;-78
2022/03/04 00:10:16;;;;;;;;;;;23.30;99.90;;;;;;5074028;28;20350;-77
2022/03/04 00:12:42;;;;;;;;;;;23.40;99.90;;;;;;5073887;28;20465;-79
2022/03/04 00:15:09;;;;;;;;;;;23.40;99.90;;;;;;5073931;28;20260;-78
2022/03/04 00:17:36;;;;;;;;;;;23.40;99.90;;;;;;5073822;28;19908;-77
2022/03/04 00:20:03;;;;;;;;;;;23.50;99.90;;;;;;5073964;28;19916;-78
2022/03/04 00:22:30;;;;;;;;;;;23.60;99.90;;;;;;5074139;28;20112;-78
2022/03/04 00:24:56;;;;;;;;;;;23.60;99.90;;;;;;5073475;28;20065;-79
2022/03/04 00:27:23;;;;;;;;;;;23.70;99.90;;;;;;5074034;28;19916;-79
2022/03/04 00:29:50;;;;;;;;;;;23.80;99.90;;;;;;5106251;28;19913;-78
2022/03/04 00:32:16;;;;;;;;;;;23.70;99.90;;;;;;5073837;28;20270;-74
2022/03/04 00:34:43;;;;;;;;;;;23.50;99.90;;;;;;5073438;28;19912;-77
2022/03/04 00:37:10;;;;;;;;;;;23.30;99.90;;;;;;5073431;28;19995;-77
2022/03/04 00:39:36;;;;;;;;;;;23.30;99.90;;;;;;5080377;28;19908;-78
2022/03/04 00:42:03;;;;;;;;;;;23.30;99.90;;;;;;5080945;28;19918;-79
2022/03/04 00:44:30;;;;;;;;;;;23.40;99.90;;;;;;5073279;28;20333;-78
2022/03/04 00:46:56;;;;;;;;;;;23.40;99.90;;;;;;5073072;28;19995;-78
2022/03/04 00:49:23;;;;;;;;;;;23.50;99.90;;;;;;5073233;28;19912;-77
2022/03/04 00:51:50;;;;;;;;;;;23.50;99.90;;;;;;5073241;28;20278;-77
2022/03/04 00:54:17;;;;;;;;;;;23.40;99.90;;;;;;5073092;28;19915;-76
2022/03/04 00:56:44;;;;;;;;;;;23.40;99.90;;;;;;5073082;28;19946;-78
2022/03/04 00:59:11;;;;;;;;;;;23.50;99.90;;;;;;5073428;28;19909;-73
2022/03/04 01:01:37;;;;;;;;;;;23.30;99.90;;;;;;5072999;28;19928;-78
2022/03/04 01:04:04;;;;;;;;;;;23.40;99.90;;;;;;5073177;28;19915;-78
2022/03/04 01:06:30;;;;;;;;;;;23.50;99.90;;;;;;5072872;28;19912;-76
2022/03/04 01:09:00;;;;;;;;;;;23.40;99.90;;;;;;5073248;28;20022;-76
2022/03/04 01:11:27;;;;;;;;;;;23.30;99.90;;;;;;5073372;28;19908;-76
2022/03/04 01:13:53;;;;;;;;;;;23.20;99.90;;;;;;5072908;28;20291;-77
2022/03/04 01:16:20;;;;;;;;;;;23.40;99.90;;;;;;5072990;28;19908;-77
2022/03/04 01:18:47;;;;;;;;;;;23.40;99.90;;;;;;5072787;28;20393;-76
2022/03/04 01:21:14;;;;;;;;;;;23.60;99.90;;;;;;5072953;28;19940;-78
2022/03/04 01:23:41;;;;;;;;;;;23.60;99.90;;;;;;5072922;28;19975;-79
2022/03/04 01:26:08;;;;;;;;;;;23.60;99.90;;;;;;5072558;28;20391;-79
2022/03/04 01:28:34;;;;;;;;;;;23.40;99.90;;;;;;5072894;28;19909;-76
2022/03/04 01:31:01;;;;;;;;;;;23.60;99.90;;;;;;5072684;28;19909;-76
2022/03/04 01:33:28;;;;;;;;;;;23.90;99.90;;;;;;5073028;28;19954;-78
2022/03/04 01:35:54;;;;;;;;;;;23.80;99.90;;;;;;5072824;28;19909;-79
2022/03/04 01:38:21;;;;;;;;;;;23.70;99.90;;;;;;5072837;28;20003;-78
2022/03/04 01:40:48;;;;;;;;;;;23.70;99.90;;;;;;5072496;28;19917;-74
2022/03/04 01:43:14;;;;;;;;;;;23.70;99.90;;;;;;5072966;28;19908;-77
2022/03/04 01:45:41;;;;;;;;;;;23.60;99.90;;;;;;5072756;28;20381;-79
2022/03/04 01:48:08;;;;;;;;;;;23.60;99.90;;;;;;5072761;28;19908;-78
2022/03/04 01:50:35;;;;;;;;;;;23.50;99.90;;;;;;5072682;28;20364;-77
2022/03/04 01:53:02;;;;;;;;;;;23.40;99.90;;;;;;5072291;28;19908;-77
2022/03/04 01:55:29;;;;;;;;;;;23.50;99.90;;;;;;5072519;28;19908;-76
2022/03/04 01:57:56;;;;;;;;;;;23.50;99.90;;;;;;5072713;28;19944;-77
2022/03/04 02:00:22;;;;;;;;;;;23.60;99.90;;;;;;5072520;28;20355;-76
2022/03/04 02:02:49;;;;;;;;;;;23.60;99.90;;;;;;5072373;28;19931;-76
2022/03/04 02:05:17;;;;;;;;;;;23.60;99.90;;;;;;5073965;28;19916;-76
2022/03/04 02:07:44;;;;;;;;;;;23.50;99.90;;;;;;5083168;28;19987;-75
2022/03/04 02:10:11;;;;;;;;;;;23.40;99.90;;;;;;5079282;28;19908;-77
2022/03/04 02:12:38;;;;;;;;;;;23.40;99.90;;;;;;5076495;28;19912;-73
2022/03/04 02:15:05;;;;;;;;;;;23.30;99.90;;;;;;5076358;28;19908;-75
2022/03/04 02:17:32;;;;;;;;;;;23.20;99.90;;;;;;5076477;28;20363;-77
2022/03/04 02:19:59;;;;;;;;;;;23.20;99.90;;;;;;5076272;28;19952;-76
2022/03/04 02:22:25;;;;;;;;;;;23.20;99.90;;;;;;5076208;28;19916;-75
2022/03/04 02:24:52;;;;;;;;;;;23.30;99.90;;;;;;5075997;28;19916;-75
2022/03/04 02:27:19;;;;;;;;;;;23.40;99.90;;;;;;5076301;28;19948;-78
2022/03/04 02:29:45;;;;;;;;;;;23.50;99.90;;;;;;5108319;28;19924;-77
2022/03/04 02:32:12;;;;;;;;;;;23.50;99.90;;;;;;5076255;28;20259;-75
2022/03/04 02:34:38;;;;;;;;;;;23.30;99.90;;;;;;5076070;28;20377;-77
2022/03/04 02:37:05;;;;;;;;;;;23.30;99.90;;;;;;5076337;28;20007;-77
2022/03/04 02:39:32;;;;;;;;;;;23.40;99.90;;;;;;5076126;28;19909;-77
2022/03/04 02:41:59;;;;;;;;;;;23.30;99.90;;;;;;5076229;28;19909;-74
2022/03/04 02:44:25;;;;;;;;;;;23.40;99.90;;;;;;5075910;28;19909;-78
2022/03/04 02:46:52;;;;;;;;;;;23.40;99.90;;;;;;5075752;28;19912;-78
2022/03/04 02:49:19;;;;;;;;;;;23.50;99.90;;;;;;5075668;28;20371;-76
2022/03/04 02:51:45;;;;;;;;;;;23.40;99.90;;;;;;5075863;28;20371;-74
2022/03/04 02:54:12;;;;;;;;;;;23.30;99.90;;;;;;5075782;28;19909;-78
2022/03/04 02:56:39;;;;;;;;;;;23.40;99.90;;;;;;5075450;28;19916;-75
2022/03/04 02:59:06;;;;;;;;;;;23.50;99.90;;;;;;5075567;28;19909;-78
2022/03/04 03:01:32;;;;;;;;;;;23.60;99.90;;;;;;5076118;28;19994;-76
2022/03/04 03:03:59;;;;;;;;;;;23.60;99.90;;;;;;5076535;28;19908;-78
2022/03/04 03:06:25;;;;;;;;;;;23.50;99.90;;;;;;5076265;28;19916;-79
2022/03/04 03:08:52;;;;;;;;;;;23.60;99.90;;;;;;5076023;28;19915;-77
2022/03/04 03:11:19;;;;;;;;;;;23.50;99.90;;;;;;5075892;28;19916;-77
2022/03/04 03:13:46;;;;;;;;;;;23.60;99.90;;;;;;5075830;28;19927;-80
2022/03/04 03:16:12;;;;;;;;;;;23.60;99.90;;;;;;5075133;28;19946;-78
2022/03/04 03:18:39;;;;;;;;;;;23.70;99.90;;;;;;5073652;28;19909;-78
2022/03/04 03:21:06;;;;;;;;;;;23.70;99.90;;;;;;5075959;28;19944;-80
2022/03/04 03:23:33;;;;;;;;;;;23.70;99.90;;;;;;5076596;28;19909;-73
2022/03/04 03:26:00;;;;;;;;;;;23.70;99.90;;;;;;5076325;28;19966;-77
2022/03/04 03:28:26;;;;;;;;;;;23.80;99.90;;;;;;5108990;28;20364;-78
2022/03/04 03:30:53;;;;;;;;;;;24.10;99.90;;;;;;5112658;28;19917;-78
2022/03/04 03:33:20;;;;;;;;;;;24.20;99.90;;;;;;5088908;28;19897;-76
2022/03/04 03:35:46;;;;;;;;;;;24.30;99.90;;;;;;5087722;28;19970;-78
2022/03/04 03:38:14;;;;;;;;;;;24.30;99.90;;;;;;5078008;28;19913;-79
2022/03/04 03:40:41;;;;;;;;;;;24.30;99.90;;;;;;5075756;28;19947;-80
2022/03/04 03:43:08;;;;;;;;;;;24.20;99.90;;;;;;5076536;28;20314;-78
2022/03/04 03:45:34;;;;;;;;;;;24.00;99.90;;;;;;5075029;28;19916;-78
2022/03/04 03:48:01;;;;;;;;;;;23.90;99.90;;;;;;5075195;28;19966;-78
2022/03/04 03:50:28;;;;;;;;;;;23.70;99.90;;;;;;5075021;28;19909;-78
2022/03/04 03:52:54;;;;;;;;;;;23.70;99.90;;;;;;5074642;28;20457;-79
2022/03/04 03:55:21;;;;;;;;;;;23.80;99.90;;;;;;5074855;28;19962;-78
2022/03/04 03:57:47;;;;;;;;;;;24.00;99.90;;;;;;5074972;28;20283;-77
2022/03/04 04:00:15;;;;;;;;;;;24.10;99.90;;;;;;5074447;28;19916;-78
2022/03/04 04:02:41;;;;;;;;;;;23.90;99.90;;;;;;5074642;28;19928;-79
2022/03/04 04:05:12;;;;;;;;;;;23.70;99.90;;;;;;5074686;28;19960;-78
2022/03/04 04:07:39;;;;;;;;;;;23.80;99.90;;;;;;5074593;28;19908;-78
2022/03/04 04:10:06;;;;;;;;;;;24.00;99.90;;;;;;5074245;28;19931;-77
2022/03/04 04:12:32;;;;;;;;;;;24.20;99.90;;;;;;5073949;28;19908;-78
2022/03/04 04:14:59;;;;;;;;;;;24.40;99.90;;;;;;5073767;28;19909;-77
2022/03/04 04:17:26;;;;;;;;;;;24.50;99.90;;;;;;5073918;28;20271;-80
2022/03/04 04:19:53;;;;;;;;;;;24.60;99.90;;;;;;5073800;28;19944;-78
2022/03/04 04:22:20;;;;;;;;;;;24.80;99.90;;;;;;5073420;28;20464;-79
2022/03/04 04:24:47;;;;;;;;;;;24.90;99.90;;;;;;5072828;28;20028;-77
2022/03/04 04:27:14;;;;;;;;;;;25.00;99.90;;;;;;5073666;28;19912;-78
2022/03/04 04:29:40;;;;;;;;;;;24.80;99.90;;;;;;5073059;28;20287;-76
2022/03/04 04:32:07;;;;;;;;;;;24.40;99.90;;;;;;5073549;28;20007;-77
2022/03/04 04:34:34;;;;;;;;;;;24.10;99.90;;;;;;5073193;28;19952;-79
2022/03/04 04:37:00;;;;;;;;;;;23.90;99.90;;;;;;5073188;28;19920;-78
2022/03/04 04:39:27;;;;;;;;;;;23.90;99.90;;;;;;5073552;28;19909;-78
2022/03/04 04:41:54;;;;;;;;;;;23.90;99.90;;;;;;5073267;28;20011;-78
2022/03/04 04:44:21;;;;;;;;;;;24.00;99.90;;;;;;5073254;28;19909;-78
2022/03/04 04:46:47;;;;;;;;;;;24.00;99.90;;;;;;5073804;28;19954;-79
2022/03/04 04:49:14;;;;;;;;;;;23.90;99.90;;;;;;5074987;28;19952;-78
2022/03/04 04:51:41;;;;;;;;;;;23.70;99.90;;;;;;5073537;28;20672;-77
2022/03/04 04:54:07;;;;;;;;;;;23.60;99.90;;;;;;5073402;28;19948;-78
2022/03/04 04:56:34;;;;;;;;;;;23.50;99.90;;;;;;5072971;28;19951;-77
2022/03/04 04:59:01;;;;;;;;;;;23.70;99.90;;;;;;5073795;28;19908;-79
2022/03/04 05:01:27;;;;;;;;;;;23.70;99.90;;;;;;5083593;28;19932;-78
2022/03/04 05:03:54;;;;;;;;;;;23.80;99.90;;;;;;5074757;28;19923;-78
2022/03/04 05:06:21;;;;;;;;;;;23.80;99.90;;;;;;5073371;28;19955;-76
2022/03/04 05:08:51;;;;;;;;;;;23.80;99.90;;;;;;5072095;28;20134;-78
2022/03/04 05:11:18;;;;;;;;;;;23.80;99.90;;;;;;5072749;28;19912;-78
2022/03/04 05:13:44;;;;;;;;;;;23.90;99.90;;;;;;5072887;28;19908;-76
2022/03/04 05:16:11;;;;;;;;;;;24.00;99.90;;;;;;5072307;28;19936;-76
2022/03/04 05:18:38;;;;;;;;;;;23.90;99.90;;;;;;5072946;28;19962;-76
2022/03/04 05:21:04;;;;;;;;;;;23.70;99.90;;;;;;5072648;28;19962;-76
2022/03/04 05:26:16;;;;;;;;;;;23.50;99.90;;;;;;5072248;28;19923;-77
2022/03/04 05:28:42;;;;;;;;;;;23.30;99.90;;;;;;5072628;28;20359;-77
2022/03/04 05:31:09;;;;;;;;;;;23.30;99.90;;;;;;5072779;28;20039;-78
2022/03/04 05:33:36;;;;;;;;;;;23.30;99.90;;;;;;5072629;28;19944;-77
2022/03/04 05:36:03;;;;;;;;;;;23.30;99.90;;;;;;5072512;28;20054;-78
2022/03/04 05:38:30;;;;;;;;;;;23.40;99.90;;;;;;5072890;28;19923;-78
2022/03/04 05:40:56;;;;;;;;;;;23.40;99.90;;;;;;5072226;28;19908;-79
2022/03/04 05:43:23;;;;;;;;;;;23.40;99.90;;;;;;5072892;28;19912;-78
2022/03/04 05:45:51;;;;;;;;;;;23.40;99.90;;;;;;5072501;28;19917;-77
2022/03/04 05:48:18;;;;;;;;;;;23.40;99.90;;;;;;5072872;28;19908;-78
2022/03/04 05:50:45;;;;;;;;;;;23.30;99.90;;;;;;5071553;28;19908;-77
2022/03/04 05:53:11;;;;;;;;;;;23.30;99.90;;;;;;5070446;28;20366;-78
2022/03/04 05:55:38;;;;;;;;;;;23.30;99.90;;;;;;5070598;28;19913;-78
2022/03/04 05:58:05;;;;;;;;;;;23.20;99.90;;;;;;5070346;28;20070;-80
2022/03/04 06:00:32;;;;;;;;;;;23.30;99.90;;;;;;5070465;28;19912;-78
2022/03/04 06:02:59;;;;;;;;;;;23.40;99.90;;;;;;5070253;28;20011;-79
2022/03/04 06:05:26;;;;;;;;;;;23.50;99.90;;;;;;5069884;28;19924;-78
2022/03/04 06:07:53;;;;;;;;;;;23.40;99.90;;;;;;5052285;28;20381;-79
2022/03/04 06:10:19;;;;;;;;;;;23.50;99.90;;;;;;5070205;28;19909;-78
2022/03/04 06:12:46;;;;;;;;;;;23.70;99.90;;;;;;5070223;28;20255;-77
2022/03/04 06:15:13;;;;;;;;;;;23.90;99.90;;;;;;5070571;28;20306;-76
2022/03/04 06:17:45;;;;;;;;;;;23.90;99.90;;;;;;5070108;28;19908;-77
2022/03/04 06:20:11;;;;;;;;;;;23.80;99.90;;;;;;5070610;28;19912;-77
2022/03/04 06:22:38;;;;;;;;;;;23.60;99.90;;;;;;5069927;28;19912;-76
2022/03/04 06:25:05;;;;;;;;;;;23.50;99.90;;;;;;5070393;28;19917;-76
2022/03/04 06:27:31;;;;;;;;;;;23.50;99.90;;;;;;5070809;28;19974;-78
2022/03/04 06:29:58;;;;;;;;;;;23.40;99.90;;;;;;5077159;28;19908;-76
2022/03/04 06:32:25;;;;;;;;;;;23.40;99.90;;;;;;5070903;28;19909;-77
2022/03/04 06:34:51;;;;;;;;;;;23.30;99.90;;;;;;5069560;28;19916;-77
2022/03/04 06:37:18;;;;;;;;;;;23.30;99.90;;;;;;5069729;28;19912;-77
2022/03/04 06:39:45;;;;;;;;;;;23.30;99.90;;;;;;5069666;28;19920;-78
2022/03/04 06:42:11;;;;;;;;;;;23.20;99.90;;;;;;5070174;28;19913;-75
2022/03/04 06:44:38;;;;;;;;;;;23.10;99.90;;;;;;5069626;28;19913;-76
2022/03/04 06:47:05;;;;;;;;;;;23.10;99.90;;;;;;5069739;28;19913;-76
2022/03/04 06:49:32;;;;;;;;;;;23.00;99.90;;;;;;5070208;28;20274;-77
2022/03/04 06:51:58;;;;;;;;;;;22.90;99.90;;;;;;5072255;28;20004;-75
2022/03/04 06:54:26;;;;;;;;;;;23.00;99.90;;;;;;5073308;28;20343;-75
2022/03/04 06:59:28;;;;;;;;;;;23.20;99.90;;;;;;5247823;22;20315;-73
2022/03/04 07:01:54;;;;;;;;;;;23.20;99.90;;;;;;5030972;28;19925;-73
2022/03/04 07:04:21;;;;;;;;;;;23.20;99.90;;;;;;5032894;28;19991;-74
2022/03/04 07:06:48;;;;;;;;;;;23.20;99.90;;;;;;5032916;28;20543;-74
2022/03/04 07:09:14;;;;;;;;;;;23.10;99.90;;;;;;5033008;28;20055;-76
2022/03/04 07:11:41;;;;;;;;;;;23.10;99.90;;;;;;5032582;28;20318;-75
2022/03/04 07:14:08;;;;;;;;;;;23.00;99.90;;;;;;5032843;28;19909;-76
2022/03/04 07:16:35;;;;;;;;;;;23.00;99.90;;;;;;5032591;28;20289;-75
2022/03/04 07:19:02;;;;;;;;;;;23.00;99.90;;;;;;5032601;28;19913;-76
2022/03/04 07:21:29;;;;;;;;;;;23.00;99.90;;;;;;5032975;28;19917;-75
2022/03/04 07:23:56;;;;;;;;;;;23.00;99.90;;;;;;5031962;28;19909;-77
2022/03/04 07:26:22;;;;;;;;;;;23.00;99.90;;;;;;5032342;28;20363;-73
2022/03/04 07:28:50;;;;;;;;;;;22.90;99.90;;;;;;5032151;28;19920;-75
2022/03/04 07:31:16;;;;;;;;;;;22.90;99.90;;;;;;5032500;28;19909;-74
2022/03/04 07:33:43;;;;;;;;;;;22.90;99.90;;;;;;5032217;28;19917;-74
2022/03/04 07:36:10;;;;;;;;;;;22.80;99.90;;;;;;5032503;28;19913;-75
2022/03/04 07:38:36;;;;;;;;;;;22.90;99.90;;;;;;5031886;28;19913;-73
2022/03/04 07:41:03;;;;;;;;;;;22.90;99.90;;;;;;5032301;28;19909;-75
2022/03/04 07:43:30;;;;;;;;;;;22.80;99.90;;;;;;5032090;28;20252;-76
2022/03/04 07:45:56;;;;;;;;;;;22.80;99.90;;;;;;5032442;28;19924;-75
2022/03/04 07:48:23;;;;;;;;;;;22.80;99.90;;;;;;5032224;28;19909;-74
2022/03/04 07:50:50;;;;;;;;;;;22.80;99.90;;;;;;5031950;28;19909;-75
2022/03/04 07:53:16;;;;;;;;;;;22.80;99.90;;;;;;5031942;28;19913;-75
2022/03/04 07:55:43;;;;;;;;;;;22.80;99.90;;;;;;5031779;28;20298;-74
2022/03/04 07:58:10;;;;;;;;;;;22.80;99.90;;;;;;5024844;28;20013;-74
2022/03/04 08:00:36;;;;;;;;;;;22.80;99.90;;;;;;5018686;28;20367;-76
2022/03/04 08:03:03;;;;;;;;;;;22.80;99.90;;;;;;5011410;28;19959;-74
2022/03/04 08:05:30;;;;;;;;;;;22.80;99.90;;;;;;5012473;28;19924;-77
2022/03/04 08:07:56;;;;;;;;;;;22.80;99.90;;;;;;5013910;28;19945;-75
2022/03/04 08:10:23;;;;;;;;;;;22.80;99.90;;;;;;5014292;28;19937;-76
2022/03/04 08:12:50;;;;;;;;;;;22.80;99.90;;;;;;5013968;28;20264;-74
2022/03/04 08:15:16;;;;;;;;;;;22.70;99.90;;;;;;5013962;28;20326;-74
2022/03/04 08:17:45;;;;;;;;;;;22.70;99.90;;;;;;5014323;28;19910;-76
2022/03/04 08:20:11;;;;;;;;;;;22.80;99.90;;;;;;5014221;28;19955;-74
2022/03/04 08:22:38;;;;;;;;;;;22.70;99.90;;;;;;5013816;28;19917;-75
2022/03/04 08:25:06;;;;;;;;;;;22.70;99.90;;;;;;5013905;28;19913;-75
2022/03/04 08:27:36;;;;;;;;;;;22.70;99.90;;;;;;5013227;28;19917;-74
2022/03/04 08:30:03;;;;;;;;;;;22.70;99.90;;;;;;5013802;28;19910;-75
2022/03/04 08:32:30;;;;;;;;;;;22.60;99.90;;;;;;5014100;28;19909;-74
2022/03/04 08:34:59;;;;;;;;;;;22.60;99.90;;;;;;5014113;28;20303;-74
2022/03/04 08:37:25;;;;;;;;;;;22.60;99.90;;;;;;5013775;28;20306;-74
2022/03/04 08:39:52;;;;;;;;;;;22.60;99.90;;;;;;5013497;28;19917;-74
2022/03/04 08:42:19;;;;;;;;;;;22.50;99.90;;;;;;5013728;28;20256;-75
2022/03/04 08:44:45;;;;;;;;;;;22.50;99.90;;;;;;5013666;28;19917;-74
2022/03/04 08:47:12;;;;;;;;;;;22.40;99.90;;;;;;5013558;28;19917;-72
2022/03/04 08:49:39;;;;;;;;;;;22.40;99.90;;;;;;5013299;28;20285;-74
2022/03/04 08:52:06;;;;;;;;;;;22.40;99.90;;;;;;5013443;28;19915;-74
2022/03/04 08:54:33;;;;;;;;;;;22.40;99.90;;;;;;5013630;28;19913;-74
2022/03/04 08:56:59;;;;;;;;;;;22.40;99.90;;;;;;5013500;28;19923;-75
2022/03/04 08:59:26;;;;;;;;;;;22.40;99.90;;;;;;5012184;28;19921;-73
2022/03/04 09:01:53;;;;;;;;;;;22.40;99.90;;;;;;5013229;28;20280;-74
2022/03/04 09:04:19;;;;;;;;;;;22.40;99.90;;;;;;5013298;28;20398;-76
2022/03/04 09:06:47;;;;;;;;;;;22.40;99.90;;;;;;5013251;28;19925;-75
2022/03/04 09:09:14;;;;;;;;;;;22.40;99.90;;;;;;5013733;28;19917;-75
2022/03/04 09:11:41;;;;;;;;;;;22.40;99.90;;;;;;5013036;28;19916;-75
2022/03/04 09:14:07;;;;;;;;;;;22.30;99.90;;;;;;5013098;28;20381;-74
2022/03/04 09:16:34;;;;;;;;;;;22.30;99.90;;;;;;5013202;28;19910;-75
2022/03/04 09:19:01;;;;;;;;;;;22.30;99.90;;;;;;5013162;28;19910;-74
2022/03/04 09:21:28;;;;;;;;;;;22.30;99.90;;;;;;5013027;28;19910;-74
2022/03/04 09:23:54;;;;;;;;;;;22.30;99.90;;;;;;5012896;28;19910;-74
2022/03/04 09:26:22;;;;;;;;;;;22.30;99.90;;;;;;5013138;28;19917;-74
2022/03/04 09:28:48;;;;;;;;;;;22.40;99.90;;;;;;5013067;28;20376;-73
2022/03/04 09:31:15;;;;;;;;;;;22.40;99.90;;;;;;5013102;28;19909;-74
2022/03/04 09:33:42;;;;;;;;;;;22.40;99.90;;;;;;5012876;28;19917;-74
2022/03/04 09:36:11;;;;;;;;;;;22.40;99.90;;;;;;5013158;28;19910;-74
2022/03/04 09:38:38;;;;;;;;;;;22.40;99.90;;;;;;5013175;28;19957;-75
2022/03/04 09:41:05;;;;;;;;;;;22.30;99.90;;;;;;5012764;28;20330;-75
2022/03/04 09:43:32;;;;;;;;;;;22.30;99.90;;;;;;5012828;28;19940;-74
2022/03/04 09:45:59;;;;;;;;;;;22.40;99.90;;;;;;5012918;28;19917;-76
2022/03/04 09:48:26;;;;;;;;;;;22.40;99.90;;;;;;5012758;28;19909;-74
2022/03/04 09:50:53;;;;;;;;;;;22.40;99.90;;;;;;5012118;28;19913;-75
2022/03/04 09:53:20;;;;;;;;;;;22.40;99.90;;;;;;5012723;28;20004;-75
2022/03/04 09:55:46;;;;;;;;;;;22.40;99.90;;;;;;5010341;28;19909;-75
2022/03/04 09:58:14;;;;;;;;;;;22.30;99.90;;;;;;4992785;28;20395;-76
2022/03/04 10:00:42;;;;;;;;;;;22.30;99.90;;;;;;5010768;28;19992;-74
2022/03/04 10:03:27;;;;;;;;;;;22.30;99.90;;;;;;5010640;28;19910;-74
2022/03/04 10:05:54;;;;;;;;;;;22.20;99.90;;;;;;5010096;28;19925;-74
2022/03/04 10:08:22;;;;;;;;;;;22.20;99.90;;;;;;5010262;28;19917;-73
2022/03/04 10:10:50;;;;;;;;;;;22.20;99.90;;;;;;4992769;28;19917;-74
2022/03/04 10:13:17;;;;;;;;;;;22.20;99.90;;;;;;5010392;28;19913;-75
2022/03/04 10:15:56;;;;;;;;;;;22.10;99.90;;;;;;5010346;28;20040;-73
2022/03/04 10:18:26;;;;;;;;;;;22.10;99.90;;;;;;5010468;28;19913;-73
2022/03/04 10:20:53;;;;;;;;;;;22.10;99.90;;;;;;5010162;28;19914;-74
2022/03/04 10:23:21;;;;;;;;;;;22.20;99.90;;;;;;5010179;28;19920;-75
2022/03/04 10:25:49;;;;;;;;;;;22.10;99.90;;;;;;5010944;28;19917;-74
2022/03/04 10:28:16;;;;;;;;;;;22.10;99.90;;;;;;5014091;28;19909;-75
2022/03/04 10:30:44;;;;;;;;;;;22.10;99.90;;;;;;5014073;28;19937;-75
2022/03/04 10:33:18;;;;;;;;;;;22.10;99.90;;;;;;5014051;28;19917;-72
2022/03/04 10:35:46;;;;;;;;;;;22.10;99.90;;;;;;5013730;28;20005;-74
2022/03/04 10:38:20;;;;;;;;;;;22.00;99.90;;;;;;5013965;28;19921;-74
2022/03/04 10:40:48;;;;;;;;;;;22.00;99.90;;;;;;5014032;28;19913;-74
2022/03/04 10:43:22;;;;;;;;;;;22.00;99.90;;;;;;5013584;28;19913;-73
2022/03/04 10:45:58;;;;;;;;;;;22.00;99.90;;;;;;5013848;28;19918;-74
2022/03/04 10:48:25;;;;;;;;;;;22.00;99.90;;;;;;5013301;28;19909;-74
2022/03/04 10:50:52;;;;;;;;;;;22.00;99.90;;;;;;5013543;28;19909;-74
2022/03/04 10:53:23;;;;;;;;;;;22.00;99.90;;;;;;5013749;28;19909;-74
2022/03/04 10:56:02;;;;;;;;;;;22.00;99.90;;;;;;5013415;28;20279;-74
2022/03/04 10:58:39;;;;;;;;;;;22.00;99.90;;;;;;5013133;28;19917;-74
2022/03/04 11:01:12;;;;;;;;;;;22.00;99.90;;;;;;5012959;28;19949;-75
2022/03/04 11:03:39;;;;;;;;;;;22.00;99.90;;;;;;5013113;28;19967;-74
2022/03/04 11:06:13;;;;;;;;;;;22.00;99.90;;;;;;5013451;28;20468;-73
2022/03/04 11:08:42;;;;;;;;;;;22.00;99.90;;;;;;5013421;28;20279;-73
2022/03/04 11:11:09;;;;;;;;;;;22.00;99.90;;;;;;5013395;28;20340;-73
2022/03/04 11:13:36;;;;;;;;;;;22.00;99.90;;;;;;5012759;28;20154;-76
2022/03/04 11:16:04;;;;;;;;;;;22.00;99.90;;;;;;5013265;28;19917;-74
2022/03/04 11:18:31;;;;;;;;;;;22.00;99.90;;;;;;5013228;28;19909;-75
2022/03/04 11:20:59;;;;;;;;;;;22.00;99.90;;;;;;5013231;28;19964;-75
2022/03/04 11:23:30;;;;;;;;;;;22.00;99.90;;;;;;5013075;28;19910;-75
2022/03/04 11:26:01;;;;;;;;;;;22.00;99.90;;;;;;5013134;28;19928;-74
2022/03/04 11:28:35;;;;;;;;;;;22.00;99.90;;;;;;5012894;28;19920;-75
2022/03/04 11:31:06;;;;;;;;;;;22.00;99.90;;;;;;5013340;28;19956;-75
2022/03/04 11:33:35;;;;;;;;;;;22.00;99.90;;;;;;5012627;28;19918;-75
2022/03/04 11:36:09;;;;;;;;;;;21.90;99.90;;;;;;5013049;28;19957;-76
2022/03/04 11:38:56;;;;;;;;;;;21.90;99.90;;;;;;5011728;28;20295;-74
2022/03/04 11:41:36;;;;;;;;;;;21.90;99.90;;;;;;5012352;28;19976;-75
2022/03/04 11:44:17;;;;;;;;;;;21.90;99.90;;;;;;5013148;28;19913;-72
2022/03/04 11:47:00;;;;;;;;;;;22.00;99.90;;;;;;5012456;28;19917;-73
2022/03/04 11:49:39;;;;;;;;;;;22.00;99.90;;;;;;5012568;28;20020;-75
2022/03/04 11:52:09;;;;;;;;;;;21.90;99.90;;;;;;5012397;28;20283;-75
2022/03/04 11:54:58;;;;;;;;;;;21.90;99.90;;;;;;5012217;28;19964;-76
2022/03/04 11:57:25;;;;;;;;;;;21.90;99.90;;;;;;5001955;28;20299;-75
2022/03/04 11:59:54;;;;;;;;;;;21.90;99.90;;;;;;5012322;28;19925;-77
2022/03/04 12:02:27;;;;;;;;;;;21.90;99.90;;;;;;5012313;28;19920;-76
2022/03/04 12:05:11;;;;;;;;;;;21.90;99.90;;;;;;5012118;28;19913;-75
2022/03/04 12:07:39;;;;;;;;;;;21.90;99.90;;;;;;5011705;28;19917;-76
2022/03/04 12:10:09;;;;;;;;;;;21.90;99.90;;;;;;5012463;28;19909;-75
2022/03/04 12:12:36;;;;;;;;;;;21.80;99.90;;;;;;5012524;28;19920;-77
2022/03/04 12:15:23;;;;;;;;;;;21.90;99.90;;;;;;5012118;28;19914;-74
2022/03/04 12:18:05;;;;;;;;;;;21.90;99.90;;;;;;4971458;28;20368;-76
2022/03/04 12:20:32;;;;;;;;;;;21.90;99.90;;;;;;5011789;28;20356;-76
2022/03/04 12:22:59;;;;;;;;;;;21.90;99.90;;;;;;5011846;28;19910;-77
2022/03/04 12:25:44;;;;;;;;;;;21.80;99.90;;;;;;5011952;28;19920;-77
2022/03/04 12:28:15;;;;;;;;;;;21.80;99.90;;;;;;5011996;28;20253;-76
2022/03/04 12:30:42;;;;;;;;;;;21.80;99.90;;;;;;5012094;28;19909;-76
2022/03/04 12:33:10;;;;;;;;;;;21.80;99.90;;;;;;5011692;28;20331;-76
2022/03/04 12:35:37;;;;;;;;;;;21.80;99.90;;;;;;5011711;28;19968;-76
2022/03/04 12:38:03;;;;;;;;;;;21.80;99.90;;;;;;5011670;28;19910;-75
2022/03/04 12:40:30;;;;;;;;;;;21.80;99.90;;;;;;5011659;28;20279;-76
2022/03/04 12:42:56;;;;;;;;;;;21.80;99.90;;;;;;5011723;28;19914;-76
2022/03/04 12:45:23;;;;;;;;;;;21.80;99.90;;;;;;5011517;28;20009;-76
2022/03/04 12:47:52;;;;;;;;;;;21.80;99.90;;;;;;5011488;28;19916;-77
2022/03/04 12:50:27;;;;;;;;;;;21.80;99.90;;;;;;5011289;28;20375;-76
2022/03/04 12:52:54;;;;;;;;;;;21.80;99.90;;;;;;5011407;28;19964;-75
2022/03/04 12:55:20;;;;;;;;;;;21.80;99.90;;;;;;5011546;28;19909;-76
2022/03/04 12:57:50;;;;;;;;;;;21.80;99.90;;;;;;5010889;28;19945;-75
2022/03/04 13:00:17;;;;;;;;;;;21.80;99.90;;;;;;5011479;28;20322;-74
2022/03/04 13:02:45;;;;;;;;;;;21.80;99.90;;;;;;5011643;28;19920;-74
2022/03/04 13:05:11;;;;;;;;;;;21.80;99.90;;;;;;5011424;28;19929;-75
2022/03/04 13:07:38;;;;;;;;;;;21.80;99.90;;;;;;5011103;28;19916;-76
2022/03/04 13:10:05;;;;;;;;;;;21.80;99.90;;;;;;5011226;28;19909;-75
2022/03/04 13:12:32;;;;;;;;;;;21.80;99.90;;;;;;5010837;28;20446;-74
2022/03/04 13:15:13;;;;;;;;;;;21.90;99.90;;;;;;5011170;28;19967;-74
2022/03/04 13:17:39;;;;;;;;;;;21.90;99.90;;;;;;5010938;28;20331;-75
2022/03/04 13:20:07;;;;;;;;;;;21.90;99.90;;;;;;5011137;28;20283;-74
2022/03/04 13:22:33;;;;;;;;;;;21.90;99.90;;;;;;5011114;28;20256;-75
2022/03/04 13:25:00;;;;;;;;;;;21.90;99.90;;;;;;5010615;28;20023;-76
2022/03/04 13:27:41;;;;;;;;;;;21.90;99.90;;;;;;5010804;28;19913;-75
2022/03/04 13:30:08;;;;;;;;;;;21.90;99.90;;;;;;5010835;28;19959;-75
2022/03/04 13:32:42;;;;;;;;;;;21.90;99.90;;;;;;5009689;28;20343;-75
2022/03/04 13:35:10;;;;;;;;;;;21.90;99.90;;;;;;5011171;28;19909;-74
2022/03/04 13:37:38;;;;;;;;;;;21.90;99.90;;;;;;5010450;28;20307;-75
2022/03/04 13:40:15;;;;;;;;;;;21.90;99.90;;;;;;5011996;28;20290;-73
2022/03/04 13:42:43;;;;;;;;;;;22.00;99.90;;;;;;5010529;28;20008;-73
2022/03/04 13:45:10;;;;;;;;;;;21.90;99.90;;;;;;5010858;28;19957;-73
2022/03/04 13:47:40;;;;;;;;;;;21.90;99.90;;;;;;5010614;28;19910;-75
2022/03/04 13:50:07;;;;;;;;;;;21.90;99.90;;;;;;5010482;28;20008;-74
2022/03/04 13:52:58;;;;;;;;;;;21.90;99.90;;;;;;5010734;28;20000;-74
2022/03/04 13:55:32;;;;;;;;;;;21.90;99.90;;;;;;5010910;28;19972;-76
2022/03/04 13:58:06;;;;;;;;;;;21.90;99.90;;;;;;5010887;28;19913;-74
2022/03/04 14:00:33;;;;;;;;;;;21.90;99.90;;;;;;5013207;28;19972;-74
2022/03/04 14:03:04;;;;;;;;;;;21.90;99.90;;;;;;5016903;28;20275;-75
2022/03/04 14:05:35;;;;;;;;;;;21.90;99.90;;;;;;5016708;28;20356;-73
2022/03/04 14:08:09;;;;;;;;;;;21.90;99.90;;;;;;5017034;28;19916;-74
2022/03/04 14:10:37;;;;;;;;;;;21.80;99.90;;;;;;5016488;28;20077;-74
2022/03/04 14:13:04;;;;;;;;;;;21.90;99.90;;;;;;5016580;28;19910;-74
2022/03/04 14:15:32;;;;;;;;;;;21.90;99.90;;;;;;5016577;28;19951;-74
2022/03/04 14:17:59;;;;;;;;;;;21.90;99.90;;;;;;5017203;28;19913;-74
2022/03/04 14:20:27;;;;;;;;;;;21.90;99.90;;;;;;5016803;28;20253;-76
2022/03/04 14:22:54;;;;;;;;;;;21.90;99.90;;;;;;5016292;28;20364;-75
2022/03/04 14:25:21;;;;;;;;;;;21.90;99.90;;;;;;5016185;28;20363;-75